Latest Weather Observations for Groote Eylandt Airport

IDD60801

Issued at 5:01 pm CST Friday 3 July 2015 (issued every 30 minutes, with the page automatically refreshed every 10 minutes)

About weather observations | Map of weather stations | Latest weather observations for NT | Other Formats
Station Details ID: 014518 Name: GROOTE EYLANDT AIRPORT Lat: -13.97 Lon: 136.46 Height: 13.7 m
Data from the previous 72 hours. | See also: Recent months at Groote Eylandt Airport
Date/Time
CST
Temp
°C
App
Temp
°C
Dew
Point
Rel
Hum
%
Delta-T
°C
Wind Press
QNH
hPa
Press
MSL
hPa
Rain
since 9 am
mm
Dir
 
Spd
km/h
Gust
km/h
Spd
kts
Gust
kts
03/05:00pm 25.4 24.7 15.4 54 6.0 SE 13 20 7 11 1013.9 1013.9 0.0
03/04:30pm 26.0 24.7 15.7 53 6.3 ESE 17 24 9 13 1013.8 1013.8 0.0
03/04:00pm 26.3 25.5 16.0 53 6.3 SE 15 26 8 14 1013.7 1013.7 0.0
03/03:30pm 27.4 27.1 16.4 51 6.8 ESE 13 24 7 13 1013.7 1013.7 0.0
03/03:00pm 26.8 25.8 15.5 50 6.9 SE 15 26 8 14 1013.8 1013.8 0.0
03/02:30pm 27.5 26.2 15.8 48 7.2 SSE 17 32 9 17 1014.0 1014.0 0.0
03/02:00pm 27.2 25.3 15.2 47 7.3 SE 19 28 10 15 1014.3 1014.3 0.0
03/01:30pm 27.3 25.9 15.6 48 7.1 SE 17 28 9 15 1014.9 1014.9 0.0
03/01:00pm 26.9 25.6 15.9 51 6.7 SE 17 28 9 15 1015.4 1015.4 0.0
03/12:30pm 26.2 24.6 15.0 50 6.7 SE 17 26 9 14 1016.1 1016.1 0.0
03/12:00pm 27.6 26.7 15.9 49 7.2 SSE 15 24 8 13 1016.4 1016.4 0.0
03/11:30am 27.1 26.4 16.4 52 6.6 SE 15 30 8 16 1016.9 1016.9 0.0
03/11:00am 27.0 26.1 16.9 54 6.3 ESE 17 30 9 16 1017.2 1017.2 0.0
03/10:30am 26.1 24.8 16.9 57 5.7 SSE 19 30 10 16 1017.4 1017.4 0.0
03/10:00am 25.1 24.6 17.8 64 4.6 SE 17 30 9 16 1017.5 1017.5 0.0
03/09:30am 25.5 25.4 18.7 66 4.3 SE 17 28 9 15 1017.5 1017.5 0.0
03/09:00am 24.6 24.9 18.8 70 3.7 SSE 15 28 8 15 1017.4 1017.4 0.0
03/08:30am 23.9 24.4 18.3 71 3.5 SSE 13 22 7 12 1017.3 1017.3 0.0
03/08:00am 22.7 24.2 18.9 79 2.4 SSE 9 17 5 9 1017.1 1017.1 0.0
03/07:30am 19.4 21.4 18.7 96 0.4 ESE 6 7 3 4 1016.8 1016.8 0.0
03/07:00am 17.9 19.3 17.4 97 0.3 SSE 6 7 3 4 1016.3 1016.3 0.0
03/06:30am 17.7 19.4 17.2 97 0.3 SE 4 7 2 4 1015.9 1015.9 0.0
03/06:00am 18.1 19.5 17.8 98 0.2 ESE 7 9 4 5 1015.6 1015.6 0.0
03/05:30am 17.8 19.2 17.3 97 0.3 ESE 6 9 3 5 1015.3 1015.3 0.0
03/05:00am 18.3 19.7 17.8 97 0.3 ESE 7 9 4 5 1015.2 1015.2 0.0
03/04:30am 18.3 19.7 17.8 97 0.3 ESE 7 9 4 5 1015.4 1015.4 0.0
03/04:00am 18.8 20.5 18.1 96 0.4 SE 6 6 3 3 1015.4 1015.4 0.0
03/03:30am 19.4 22.5 18.7 96 0.4 CALM 0 0 0 0 1015.4 1015.4 0.0
03/03:00am 20.0 22.6 19.2 95 0.5 SE 4 6 2 3 1015.4 1015.4 0.0
03/02:30am 20.3 22.5 19.3 94 0.6 SE 6 7 3 4 1015.8 1015.8 0.0
03/02:00am 20.9 23.3 19.6 92 0.8 SSE 6 7 3 4 1016.0 1016.0 0.0
03/01:30am 22.0 24.4 20.1 89 1.2 SE 7 11 4 6 1016.3 1016.3 0.0
03/01:00am 22.5 24.8 20.6 89 1.2 ESE 9 13 5 7 1016.5 1016.5 0.0
03/12:30am 22.7 25.1 20.8 89 1.2 ESE 9 13 5 7 1016.6 1016.6 0.0
03/12:00am 22.9 25.3 20.8 88 1.4 ESE 9 13 5 7 1016.6 1016.6 0.0
 
Date/Time
CST
Temp
°C
App
Temp
°C
Dew
Point
Rel
Hum
%
Delta-T
°C
Wind Press
QNH
hPa
Press
MSL
hPa
Rain
since 9 am
mm
Dir
 
Spd
km/h
Gust
km/h
Spd
kts
Gust
kts
02/11:30pm 23.1 25.1 20.8 87 1.5 ESE 11 17 6 9 1016.8 1016.8 0.0
02/11:00pm 23.2 24.8 20.7 86 1.6 E 13 17 7 9 1017.0 1017.0 0.0
02/10:30pm 23.2 24.8 20.7 86 1.6 ESE 13 17 7 9 1017.2 1017.2 0.0
02/10:00pm 23.3 24.9 20.8 86 1.6 ESE 13 19 7 10 1017.2 1017.2 0.0
02/09:30pm 23.1 25.0 20.6 86 1.6 ESE 11 15 6 8 1017.4 1017.4 0.0
02/09:00pm 23.1 25.3 20.4 85 1.7 ESE 9 15 5 8 1017.3 1017.3 0.0
02/08:30pm 22.9 25.4 20.2 85 1.7 SE 7 11 4 6 1017.3 1017.3 0.0
02/08:00pm 23.1 25.5 20.1 83 1.9 ESE 7 11 4 6 1017.0 1017.0 0.0
02/07:30pm 23.4 25.8 20.1 82 2.1 SE 7 11 4 6 1016.8 1016.8 0.0
02/07:00pm 23.9 25.9 20.0 79 2.5 SE 9 15 5 8 1016.3 1016.3 0.0
02/06:30pm 24.7 26.3 20.0 75 3.0 SE 11 19 6 10 1016.1 1016.1 0.0
02/06:00pm 25.6 27.4 19.5 69 3.9 ESE 9 17 5 9 1015.7 1015.7 0.0
02/05:30pm 26.2 27.1 19.3 65 4.4 ESE 13 22 7 12 1015.4 1015.4 0.0
02/05:00pm 27.3 27.7 19.1 61 5.3 E 15 22 8 12 1015.3 1015.3 0.0
02/04:30pm 27.4 27.7 18.7 59 5.6 ESE 15 24 8 13 1015.1 1015.1 0.0
02/04:00pm 27.8 26.4 17.9 54 6.3 E 22 28 12 15 1015.0 1015.0 0.0
02/03:30pm 28.3 27.6 18.7 56 6.2 ESE 20 37 11 20 1015.0 1015.0 0.0
02/03:00pm 29.2 27.1 18.0 51 7.1 E 26 35 14 19 1015.1 1015.1 0.0
02/02:30pm 28.9 28.3 18.4 53 6.7 E 19 28 10 15 1015.4 1015.4 0.0
02/02:00pm 28.3 27.4 18.1 54 6.5 SE 20 33 11 18 1015.7 1015.7 0.0
02/01:30pm 29.1 27.2 17.6 50 7.3 E 24 35 13 19 1016.1 1016.1 0.0
02/01:00pm 29.6 27.2 17.4 47 7.7 E 26 37 14 20 1016.6 1016.6 0.0
02/12:30pm 28.5 27.4 17.4 51 7.0 SE 19 30 10 16 1016.9 1016.9 0.0
02/12:00pm 28.9 28.1 18.1 52 6.9 SE 19 33 10 18 1017.4 1017.4 0.0
02/11:30am 28.2 27.2 18.0 54 6.5 ESE 20 32 11 17 1017.8 1017.8 0.0
02/11:00am 27.6 26.6 18.0 55 6.1 SE 20 33 11 18 1018.1 1018.1 0.0
02/10:30am 27.8 27.2 18.8 58 5.8 SE 20 32 11 17 1018.3 1018.3 0.0
02/10:00am 27.2 26.9 18.2 58 5.7 SE 17 30 9 16 1018.4 1018.4 0.0
02/09:30am 26.7 26.3 18.8 62 5.0 SE 19 39 10 21 1018.4 1018.4 0.0
02/09:00am 25.7 26.8 19.6 69 3.9 SE 13 26 7 14 1018.5 1018.5 0.8
02/08:30am 24.2 26.5 20.7 81 2.3 SSE 9 17 5 9 1018.5 1018.5 0.8
02/08:00am 21.7 25.4 21.4 98 0.2 SE 4 9 2 5 1018.1 1018.1 0.8
02/07:30am 18.7 21.8 18.7 100 0.0 CALM 0 6 0 3 1017.8 1017.8 0.8
02/07:00am 16.6 18.8 16.4 99 0.1 CALM 0 0 0 0 1017.6 1017.6 0.8
02/06:30am 16.3 18.3 16.1 99 0.1 CALM 0 6 0 3 1017.4 1017.4 0.8
02/06:00am 16.1 18.0 15.8 98 0.2 CALM 0 0 0 0 1017.0 1017.0 0.8
02/05:30am 16.6 18.8 16.4 99 0.1 CALM 0 0 0 0 1016.8 1016.8 0.8
02/05:00am 16.5 18.6 16.2 98 0.2 CALM 0 0 0 0 1016.6 1016.6 0.8
02/04:30am 16.8 19.0 16.5 98 0.2 CALM 0 0 0 0 1016.5 1016.5 0.8
02/04:00am 17.1 19.4 16.8 98 0.2 CALM 0 0 0 0 1016.3 1016.3 0.8
02/03:30am 17.2 19.6 16.9 98 0.2 CALM 0 0 0 0 1016.5 1016.5 0.8
02/03:00am 17.6 20.1 17.3 98 0.2 CALM 0 0 0 0 1016.6 1016.6 0.8
02/02:30am 18.0 20.6 17.5 97 0.3 CALM 0 0 0 0 1016.8 1016.8 0.8
02/02:00am 18.3 21.0 17.8 97 0.3 CALM 0 0 0 0 1017.2 1017.2 0.8
02/01:30am 18.7 21.6 18.2 97 0.3 CALM 0 0 0 0 1017.3 1017.3 0.8
02/01:00am 19.4 22.6 18.9 97 0.3 CALM 0 0 0 0 1017.6 1017.6 0.8
02/12:30am 19.6 22.8 18.9 96 0.4 CALM 0 0 0 0 1018.0 1018.0 0.8
02/12:00am 20.1 23.5 19.4 96 0.4 CALM 0 0 0 0 1018.1 1018.1 0.8
 
Date/Time
CST
Temp
°C
App
Temp
°C
Dew
Point
Rel
Hum
%
Delta-T
°C
Wind Press
QNH
hPa
Press
MSL
hPa
Rain
since 9 am
mm
Dir
 
Spd
km/h
Gust
km/h
Spd
kts
Gust
kts
01/11:30pm 20.3 23.7 19.3 94 0.6 CALM 0 0 0 0 1018.2 1018.2 0.8
01/11:00pm 20.9 23.4 19.9 94 0.6 SSE 6 7 3 4 1018.5 1018.5 0.8
01/10:30pm 21.5 24.1 20.0 91 1.0 SE 6 7 3 4 1018.6 1018.6 0.8
01/10:00pm 21.9 25.2 20.0 89 1.2 SSE 2 6 1 3 1018.6 1018.6 0.8
01/09:30pm 22.3 25.1 20.4 89 1.2 SSE 6 7 3 4 1018.6 1018.6 0.8
01/09:00pm 22.5 25.2 20.2 87 1.5 S 6 7 3 4 1018.3 1018.3 0.8
01/08:30pm 22.9 25.6 20.2 85 1.7 SSE 6 7 3 4 1017.9 1017.9 0.8
01/08:00pm 23.2 25.7 20.2 83 1.9 SE 7 9 4 5 1017.6 1017.6 0.8
01/07:30pm 23.5 26.0 19.8 80 2.4 ESE 6 9 3 5 1017.4 1017.4 0.8
01/07:00pm 24.0 26.3 19.9 78 2.6 ESE 7 11 4 6 1017.1 1017.1 0.8
01/06:30pm 24.5 26.0 19.8 75 3.0 ESE 11 20 6 11 1016.8 1016.8 0.8
01/06:00pm 24.8 27.0 20.3 76 2.9 ESE 9 13 5 7 1016.6 1016.6 0.8
01/05:30pm 25.3 27.2 20.5 75 3.1 SE 11 17 6 9 1016.4 1016.4 0.8
01/05:00pm 25.4 26.1 20.4 74 3.3 ESE 17 26 9 14 1016.1 1016.1 0.8
01/04:30pm 25.9 26.6 20.5 72 3.5 SE 17 32 9 17 1015.8 1015.8 0.8
01/04:00pm 25.6 26.8 21.5 78 2.7 ESE 17 26 9 14 1015.7 1015.7 0.8
01/03:30pm 23.4 25.2 21.1 87 1.5 SE 13 20 7 11 1015.7 1015.7 0.8
01/03:00pm 26.9 28.0 20.5 68 4.2 SE 15 24 8 13 1015.5 1015.5 0.0
01/02:30pm 26.1 27.9 21.1 74 3.3 SE 13 20 7 11 1016.0 1016.0 0.0
01/02:00pm 25.7 26.5 20.7 74 3.3 SE 17 32 9 17 1016.3 1016.3 0.0
01/01:30pm 27.7 26.4 19.8 62 5.1 ESE 26 41 14 22 1016.4 1016.4 0.0
01/01:00pm 27.5 27.2 19.6 62 5.1 ESE 20 37 11 20 1016.9 1016.9 0.0
01/12:30pm 27.7 27.6 20.0 63 5.0 ESE 20 28 11 15 1017.4 1017.4 0.0
01/12:00pm 27.8 27.6 19.8 61 5.2 ESE 20 35 11 19 1017.6 1017.6 0.0
01/11:30am 27.3 25.6 19.9 64 4.8 ESE 28 44 15 24 1017.9 1017.9 0.0
01/11:00am 26.8 27.3 21.1 71 3.8 ESE 20 35 11 19 1018.3 1018.3 0.0
01/10:30am 26.0 26.3 20.8 73 3.4 ESE 20 33 11 18 1018.4 1018.4 0.0
01/10:00am 25.7 26.0 20.5 73 3.4 ESE 19 28 10 15 1018.4 1018.4 0.0
01/09:30am 26.5 27.3 21.3 73 3.4 ESE 19 33 10 18 1018.4 1018.4 0.0
01/09:00am 25.0 27.2 21.1 79 2.6 ESE 11 19 6 10 1018.3 1018.3 0.8
01/08:30am 23.9 26.0 21.0 84 1.9 SE 11 19 6 10 1018.0 1018.0 0.8
01/08:00am 23.2 25.5 21.3 89 1.2 SE 11 17 6 9 1017.7 1017.7 0.8
01/07:30am 22.9 25.3 21.5 92 0.9 SE 11 17 6 9 1017.4 1017.4 0.8
01/07:00am 22.5 25.0 21.7 95 0.5 SE 11 19 6 10 1017.0 1017.0 0.8
01/06:30am 22.3 25.2 21.8 97 0.3 SE 9 13 5 7 1016.8 1016.8 0.8
01/06:00am 22.4 25.8 21.7 96 0.5 ESE 6 11 3 6 1016.6 1016.6 0.6
01/05:30am 22.3 25.8 22.1 99 0.1 SSE 7 15 4 8 1016.3 1016.3 0.6
01/05:00am 21.6 25.1 21.1 97 0.3 S 4 6 2 3 1016.3 1016.3 0.0
01/04:30am 21.1 25.0 20.4 96 0.5 CALM 0 0 0 0 1016.2 1016.2 0.0
01/04:00am 21.5 25.6 20.8 96 0.5 CALM 0 0 0 0 1016.0 1016.0 0.0
01/03:30am 21.7 25.9 21.0 96 0.5 CALM 0 0 0 0 1016.1 1016.1 0.0
01/03:00am 21.7 25.6 21.2 97 0.3 SSW 2 7 1 4 1015.9 1015.9 0.0
01/02:30am 21.4 25.3 20.4 94 0.6 CALM 0 0 0 0 1016.2 1016.2 0.0
01/02:00am 21.8 25.9 20.8 94 0.6 CALM 0 0 0 0 1016.3 1016.3 0.0
01/01:30am 21.9 25.8 20.4 91 1.0 CALM 0 0 0 0 1016.6 1016.6 0.0
01/01:00am 22.4 26.7 21.2 93 0.8 CALM 0 0 0 0 1016.7 1016.7 0.0
01/12:30am 22.1 26.4 21.1 94 0.7 CALM 0 0 0 0 1017.0 1017.0 0.0
01/12:00am 22.2 26.4 21.0 93 0.8 CALM 0 0 0 0 1017.3 1017.3 0.0
 
Date/Time
CST
Temp
°C
App
Temp
°C
Dew
Point
Rel
Hum
%
Delta-T
°C
Wind Press
QNH
hPa
Press
MSL
hPa
Rain
since 9 am
mm
Dir
 
Spd
km/h
Gust
km/h
Spd
kts
Gust
kts
30/11:30pm 22.4 26.2 20.9 91 1.0 E 2 7 1 4 1017.3 1017.3 0.0
30/11:00pm 22.9 27.0 20.8 88 1.4 CALM 0 0 0 0 1017.3 1017.3 0.0
30/10:30pm 23.1 27.2 20.8 87 1.5 CALM 0 0 0 0 1017.4 1017.4 0.0
30/10:00pm 23.4 27.6 20.9 86 1.6 CALM 0 2 0 1 1017.4 1017.4 0.0
30/09:30pm 23.7 27.3 21.2 86 1.6 ESE 4 6 2 3 1017.3 1017.3 0.0
30/09:00pm 23.9 26.9 21.2 85 1.8 SE 7 11 4 6 1017.2 1017.2 0.0
30/08:30pm 24.1 27.0 21.0 83 2.0 SE 7 11 4 6 1016.9 1016.9 0.0
30/08:00pm 24.3 27.2 21.0 82 2.2 SE 7 13 4 7 1016.7 1016.7 0.0
30/07:30pm 24.5 27.0 21.0 81 2.3 SE 9 11 5 6 1016.3 1016.3 0.0
30/07:00pm 25.1 27.2 21.0 78 2.7 SE 11 20 6 11 1015.9 1015.9 0.0
30/06:30pm 25.6 27.6 20.8 75 3.2 SE 11 17 6 9 1015.5 1015.5 0.0
30/06:00pm 26.3 27.8 20.6 71 3.7 SE 13 20 7 11 1015.2 1015.1 0.0
30/05:30pm 27.4 28.9 20.5 66 4.5 SSE 13 20 7 11 1014.8 1014.7 0.0

Other Formats:

Comma delimited format used in spreadsheet applications
http://www.bom.gov.au/fwo/IDD60801/IDD60801.94153.axf

JavaScript Object Notation format (JSON) in row-major order
http://www.bom.gov.au/fwo/IDD60801/IDD60801.94153.json